createdAt,value
2023-04-16T00:00:44.173Z,74.63
2023-04-16T00:01:44.224Z,73.91
2023-04-16T00:02:44.267Z,73.23
2023-04-16T00:03:44.249Z,72.92
2023-04-16T00:04:44.175Z,72.99
2023-04-16T00:05:44.099Z,72.00
2023-04-16T00:06:44.092Z,71.59
2023-04-16T00:07:44.082Z,70.97
2023-04-16T00:08:44.092Z,70.97
2023-04-16T00:09:44.057Z,70.67
2023-04-16T00:10:44.058Z,70.67
2023-04-16T00:11:44.056Z,70.56
2023-04-16T00:12:44.024Z,70.36
2023-04-16T00:13:44.021Z,69.74
2023-04-16T00:14:44.001Z,69.43
2023-04-16T00:15:43.992Z,69.74
2023-04-16T00:16:44.042Z,69.84
2023-04-16T00:17:44.021Z,69.64
2023-04-16T00:18:43.960Z,70.15
2023-04-16T00:19:43.947Z,69.23
2023-04-16T00:20:43.942Z,69.23
2023-04-16T00:21:43.921Z,68.92
2023-04-16T00:22:43.954Z,68.51
2023-04-16T00:23:43.913Z,68.00
2023-04-16T00:24:43.893Z,67.79
2023-04-16T00:25:43.889Z,68.41
2023-04-16T00:26:43.868Z,67.69
2023-04-16T00:27:43.876Z,67.49
2023-04-16T00:28:43.847Z,66.77
2023-04-16T00:29:43.841Z,66.25
2023-04-16T00:30:43.843Z,66.16
2023-04-16T00:31:43.807Z,66.39
2023-04-16T00:32:43.837Z,66.36
2023-04-16T00:33:43.789Z,66.70
2023-04-16T00:34:43.803Z,66.49
2023-04-16T00:35:43.763Z,67.00
2023-04-16T00:36:43.762Z,67.21
2023-04-16T00:37:43.749Z,66.39
2023-04-16T00:38:43.739Z,66.19
2023-04-16T00:39:43.719Z,65.98
2023-04-16T00:40:43.711Z,66.08
2023-04-16T00:41:43.697Z,65.98
2023-04-16T00:42:43.689Z,65.29
2023-04-16T00:43:43.700Z,64.06
2023-04-16T00:44:43.666Z,64.37
2023-04-16T00:45:43.649Z,62.31
2023-04-16T00:46:43.720Z,61.39
2023-04-16T00:47:43.670Z,60.16
2023-04-16T00:48:43.623Z,60.88
2023-04-16T00:49:43.633Z,60.98
2023-04-16T00:50:43.603Z,60.36
2023-04-16T00:51:43.587Z,60.77
2023-04-16T00:52:43.575Z,61.16
2023-04-16T00:53:43.566Z,61.57
2023-04-16T00:54:43.552Z,61.77
2023-04-16T00:55:43.539Z,61.87
2023-04-16T00:56:43.538Z,62.39
2023-04-16T00:57:43.516Z,62.80
2023-04-16T00:58:43.504Z,62.70
2023-04-16T00:59:43.518Z,63.31
2023-04-16T01:00:43.483Z,63.62
2023-04-16T01:01:43.613Z,63.82
2023-04-16T01:02:43.594Z,63.10
2023-04-16T01:03:43.723Z,63.42
2023-04-16T01:04:43.442Z,63.72
2023-04-16T01:05:43.430Z,64.13
2023-04-16T01:06:43.419Z,63.72
2023-04-16T01:07:43.424Z,63.72
2023-04-16T01:08:43.408Z,63.93
2023-04-16T01:09:43.396Z,64.44
2023-04-16T01:10:43.374Z,65.77
2023-04-16T01:11:43.364Z,66.08
2023-04-16T01:12:43.351Z,66.49
2023-04-16T01:13:43.355Z,67.00
2023-04-16T01:14:43.337Z,67.00
2023-04-16T01:15:43.352Z,67.21
2023-04-16T01:16:43.308Z,67.32
2023-04-16T01:17:43.334Z,68.13
2023-04-16T01:18:43.289Z,67.93
2023-04-16T01:19:43.281Z,68.03
2023-04-16T01:20:43.287Z,68.24
2023-04-16T01:21:43.263Z,68.24
2023-04-16T01:22:43.250Z,68.13
2023-04-16T01:23:43.233Z,67.11
2023-04-16T01:24:43.223Z,67.11
2023-04-16T01:25:43.206Z,67.32
2023-04-16T01:26:43.205Z,67.21
2023-04-16T01:27:43.186Z,66.80
2023-04-16T01:28:43.177Z,66.90
2023-04-16T01:29:43.164Z,66.80
2023-04-16T01:30:43.156Z,67.11
2023-04-16T01:31:43.262Z,67.21
2023-04-16T01:32:43.146Z,66.70
2023-04-16T01:33:43.137Z,67.00
2023-04-16T01:34:43.113Z,67.00
2023-04-16T01:35:43.108Z,67.00
2023-04-16T01:36:43.087Z,67.00
2023-04-16T01:37:43.104Z,67.21
2023-04-16T01:38:43.081Z,66.90
2023-04-16T01:39:43.058Z,66.70
2023-04-16T01:40:43.052Z,67.11
2023-04-16T01:41:43.058Z,66.90
2023-04-16T01:42:43.016Z,66.19
2023-04-16T01:43:43.017Z,66.70
2023-04-16T01:44:43.040Z,66.49
2023-04-16T01:45:42.987Z,66.28
2023-04-16T01:46:43.039Z,66.90
2023-04-16T01:47:43.032Z,67.72
2023-04-16T01:48:42.967Z,68.03
2023-04-16T01:49:42.940Z,67.93
2023-04-16T01:50:42.932Z,68.13
2023-04-16T01:51:42.927Z,68.13
2023-04-16T01:52:42.911Z,67.52
2023-04-16T01:53:42.906Z,67.41
2023-04-16T01:54:42.906Z,67.11
2023-04-16T01:55:42.876Z,67.32
2023-04-16T01:56:42.862Z,67.52
2023-04-16T01:57:42.855Z,67.41
2023-04-16T01:58:42.839Z,68.13
2023-04-16T01:59:42.834Z,67.62
2023-04-16T02:00:42.862Z,67.93
2023-04-16T02:01:42.808Z,68.34
2023-04-16T02:02:42.991Z,68.03
2023-04-16T02:03:43.040Z,67.62
2023-04-16T02:04:42.771Z,67.65
2023-04-16T02:05:42.787Z,67.76
2023-04-16T02:06:42.755Z,67.24
2023-04-16T02:07:42.773Z,67.03
2023-04-16T02:08:42.731Z,66.93
2023-04-16T02:09:42.743Z,67.03
2023-04-16T02:10:42.747Z,66.80
2023-04-16T02:11:42.700Z,66.83
2023-04-16T02:12:42.686Z,66.31
2023-04-16T02:13:42.675Z,65.60
2023-04-16T02:14:42.660Z,65.39
2023-04-16T02:15:42.649Z,63.96
2023-04-16T02:16:42.659Z,62.73
2023-04-16T02:17:42.659Z,63.75
2023-04-16T02:18:42.620Z,64.47
2023-04-16T02:19:42.622Z,64.06
2023-04-16T02:20:42.600Z,63.75
2023-04-16T02:21:42.579Z,63.75
2023-04-16T02:22:42.571Z,64.26
2023-04-16T02:23:42.562Z,64.47
2023-04-16T02:24:42.560Z,64.16
2023-04-16T02:25:42.563Z,63.96
2023-04-16T02:26:42.520Z,63.44
2023-04-16T02:27:42.534Z,63.24
2023-04-16T02:28:42.498Z,64.16
2023-04-16T02:29:42.495Z,63.75
2023-04-16T02:30:42.502Z,64.26
2023-04-16T02:31:42.521Z,64.16
2023-04-16T02:32:42.504Z,64.16
2023-04-16T02:33:42.452Z,63.96
2023-04-16T02:34:42.429Z,64.16
2023-04-16T02:35:42.459Z,64.06
2023-04-16T02:36:42.407Z,64.26
2023-04-16T02:37:42.398Z,64.47
2023-04-16T02:38:42.390Z,64.57
2023-04-16T02:39:42.376Z,64.88
2023-04-16T02:40:42.376Z,65.19
2023-04-16T02:41:42.352Z,64.78
2023-04-16T02:42:42.343Z,64.47
2023-04-16T02:43:42.330Z,63.75
2023-04-16T02:44:42.321Z,63.54
2023-04-16T02:45:42.351Z,63.85
2023-04-16T02:46:42.369Z,63.85
2023-04-16T02:47:42.334Z,63.75
2023-04-16T02:48:42.276Z,63.44
2023-04-16T02:49:42.262Z,63.24
2023-04-16T02:50:42.256Z,63.24
2023-04-16T02:51:42.268Z,62.62
2023-04-16T02:52:42.251Z,61.60
2023-04-16T02:53:42.219Z,61.90
2023-04-16T02:54:42.211Z,61.80
2023-04-16T02:55:42.205Z,61.70
2023-04-16T02:56:42.201Z,61.80
2023-04-16T02:57:42.178Z,62.01
2023-04-16T02:58:42.159Z,61.80
2023-04-16T02:59:42.154Z,61.39
2023-04-16T03:00:42.136Z,61.29
2023-04-16T03:01:42.231Z,61.29
2023-04-16T03:02:42.174Z,60.36
2023-04-16T03:03:42.115Z,60.47
2023-04-16T03:04:42.120Z,60.36
2023-04-16T03:05:42.083Z,59.75
2023-04-16T03:06:42.099Z,60.05
2023-04-16T03:07:42.168Z,59.75
2023-04-16T03:08:42.051Z,59.75
2023-04-16T03:09:42.042Z,60.36
2023-04-16T03:10:42.029Z,60.05
2023-04-16T03:11:42.022Z,60.05
2023-04-16T03:12:42.003Z,60.36
2023-04-16T03:13:42.002Z,60.05
2023-04-16T03:14:41.985Z,58.62
2023-04-16T03:15:42.011Z,59.64
2023-04-16T03:16:41.964Z,60.05
2023-04-16T03:17:41.972Z,60.26
2023-04-16T03:18:41.935Z,60.67
2023-04-16T03:19:41.928Z,60.47
2023-04-16T03:20:41.921Z,60.26
2023-04-16T03:21:41.911Z,60.16
2023-04-16T03:22:41.930Z,60.77
2023-04-16T03:23:41.915Z,60.98
2023-04-16T03:24:41.870Z,61.90
2023-04-16T03:25:41.862Z,62.11
2023-04-16T03:26:41.846Z,62.62
2023-04-16T03:27:41.874Z,62.01
2023-04-16T03:28:41.836Z,61.60
2023-04-16T03:29:41.819Z,62.21
2023-04-16T03:30:41.810Z,61.90
2023-04-16T03:31:41.829Z,61.90
2023-04-16T03:32:41.894Z,62.01
2023-04-16T03:33:41.775Z,61.70
2023-04-16T03:34:41.772Z,61.80
2023-04-16T03:35:41.755Z,60.88
2023-04-16T03:36:41.746Z,60.98
2023-04-16T03:37:41.727Z,61.29
2023-04-16T03:38:41.720Z,61.18
2023-04-16T03:39:41.737Z,61.39
2023-04-16T03:40:41.705Z,61.60
2023-04-16T03:41:41.698Z,61.70
2023-04-16T03:42:41.681Z,61.70
2023-04-16T03:43:41.663Z,61.80
2023-04-16T03:44:41.651Z,61.80
2023-04-16T03:45:41.640Z,61.60
2023-04-16T03:46:41.680Z,63.34
2023-04-16T03:47:41.637Z,63.44
2023-04-16T03:48:41.611Z,63.65
2023-04-16T03:49:41.599Z,63.54
2023-04-16T03:50:41.621Z,63.85
2023-04-16T03:51:41.578Z,64.37
2023-04-16T03:52:41.596Z,63.75
2023-04-16T03:53:41.550Z,64.78
2023-04-16T03:54:41.535Z,64.98
2023-04-16T03:55:41.556Z,65.29
2023-04-16T03:56:41.516Z,66.31
2023-04-16T03:57:41.505Z,66.52
2023-04-16T03:58:41.493Z,68.06
2023-04-16T03:59:41.481Z,68.37
2023-04-16T04:00:41.471Z,68.78
2023-04-16T04:01:41.488Z,68.88
2023-04-16T04:02:41.664Z,68.99
2023-04-16T04:03:41.631Z,69.09
2023-04-16T04:04:41.522Z,68.78
2023-04-16T04:05:41.426Z,69.50
2023-04-16T04:06:41.440Z,68.78
2023-04-16T04:07:41.396Z,67.96
2023-04-16T04:08:41.387Z,67.55
2023-04-16T04:09:41.380Z,67.44
2023-04-16T04:10:41.359Z,67.65
2023-04-16T04:11:41.379Z,66.83
2023-04-16T04:12:41.341Z,66.73
2023-04-16T04:13:41.325Z,66.73
2023-04-16T04:14:41.311Z,66.93
2023-04-16T04:15:41.307Z,67.14
2023-04-16T04:16:41.474Z,67.03
2023-04-16T04:17:41.338Z,67.07
2023-04-16T04:18:42.695Z,66.55
2023-04-16T04:19:47.171Z,66.45
2023-04-16T04:20:41.309Z,66.14
2023-04-16T04:21:41.258Z,66.04
2023-04-16T04:22:41.227Z,66.52
2023-04-16T04:23:41.220Z,66.66
2023-04-16T04:24:41.202Z,66.66
2023-04-16T04:25:41.191Z,67.48
2023-04-16T04:26:41.184Z,67.17
2023-04-16T04:27:41.198Z,66.35
2023-04-16T04:28:41.157Z,66.45
2023-04-16T04:29:41.169Z,66.86
2023-04-16T04:30:41.137Z,66.86
2023-04-16T04:31:41.221Z,66.25
2023-04-16T04:32:41.171Z,66.35
2023-04-16T04:33:41.106Z,65.83
2023-04-16T04:34:41.092Z,66.35
2023-04-16T04:35:41.077Z,66.25
2023-04-16T04:36:41.066Z,65.63
2023-04-16T04:37:41.074Z,66.35
2023-04-16T04:38:41.049Z,67.07
2023-04-16T04:39:41.040Z,67.17
2023-04-16T04:40:41.026Z,66.76
2023-04-16T04:41:41.018Z,66.14
2023-04-16T04:42:41.001Z,67.44
2023-04-16T04:43:41.016Z,67.65
2023-04-16T04:44:40.975Z,68.06
2023-04-16T04:45:41.015Z,68.27
2023-04-16T04:46:40.969Z,68.57
2023-04-16T04:47:40.958Z,69.50
2023-04-16T04:48:40.931Z,71.25
2023-04-16T04:49:40.931Z,71.55
2023-04-16T04:50:40.921Z,71.76
2023-04-16T04:51:40.910Z,72.68
2023-04-16T04:52:40.888Z,73.40
2023-04-16T04:53:40.871Z,74.12
2023-04-16T04:54:40.880Z,74.22
2023-04-16T04:55:40.861Z,74.74
2023-04-16T04:56:40.844Z,74.53
2023-04-16T04:57:40.836Z,75.76
2023-04-16T04:58:40.841Z,75.73
2023-04-16T04:59:40.834Z,75.52
2023-04-16T05:00:40.804Z,75.52
2023-04-16T05:01:40.830Z,75.42
2023-04-16T05:02:40.920Z,75.93
2023-04-16T05:03:40.864Z,75.83
2023-04-16T05:04:40.784Z,76.55
2023-04-16T05:05:40.760Z,76.65
2023-04-16T05:06:40.741Z,76.86
2023-04-16T05:07:40.723Z,77.58
2023-04-16T05:08:40.717Z,76.34
2023-04-16T05:09:40.702Z,76.55
2023-04-16T05:10:40.688Z,77.58
2023-04-16T05:11:40.675Z,77.47
2023-04-16T05:12:40.666Z,77.47
2023-04-16T05:13:40.658Z,77.17
2023-04-16T05:14:40.644Z,77.17
2023-04-16T05:15:40.665Z,77.88
2023-04-16T05:16:40.663Z,77.98
2023-04-16T05:17:40.658Z,78.19
2023-04-16T05:18:40.596Z,78.50
2023-04-16T05:19:40.591Z,77.98
2023-04-16T05:20:40.584Z,78.60
2023-04-16T05:21:40.573Z,78.70
2023-04-16T05:22:40.560Z,79.11
2023-04-16T05:23:40.560Z,78.97
2023-04-16T05:24:40.536Z,79.28
2023-04-16T05:25:40.520Z,78.56
2023-04-16T05:26:40.510Z,80.21
2023-04-16T05:27:40.498Z,80.62
2023-04-16T05:28:40.489Z,81.23
2023-04-16T05:29:40.491Z,81.43
2023-04-16T05:30:40.558Z,80.72
2023-04-16T05:31:40.474Z,81.54
2023-04-16T05:32:40.496Z,81.95
2023-04-16T05:33:40.431Z,81.85
2023-04-16T05:34:40.413Z,82.67
2023-04-16T05:35:40.407Z,83.18
2023-04-16T05:36:40.400Z,83.07
2023-04-16T05:37:40.400Z,83.28
2023-04-16T05:38:40.375Z,84.00
2023-04-16T05:39:40.360Z,84.52
2023-04-16T05:40:40.352Z,84.37
2023-04-16T05:41:40.337Z,84.99
2023-04-16T05:42:40.323Z,84.99
2023-04-16T05:43:40.317Z,85.39
2023-04-16T05:44:40.301Z,84.88
2023-04-16T05:45:40.285Z,85.80
2023-04-16T05:46:40.347Z,87.14
2023-04-16T05:47:40.400Z,86.42
2023-04-16T05:48:40.256Z,87.34
2023-04-16T05:49:40.252Z,87.65
2023-04-16T05:50:40.236Z,87.55
2023-04-16T05:51:40.225Z,88.17
2023-04-16T05:52:40.212Z,88.17
2023-04-16T05:53:40.205Z,88.37
2023-04-16T05:54:40.191Z,87.96
2023-04-16T05:55:40.188Z,88.78
2023-04-16T05:56:40.176Z,89.09
2023-04-16T05:57:40.150Z,89.36
2023-04-16T05:58:40.143Z,90.37
2023-04-16T05:59:40.129Z,90.28
2023-04-16T06:00:40.119Z,90.48
2023-04-16T06:01:40.117Z,90.58
2023-04-16T06:02:40.305Z,90.99
2023-04-16T06:03:40.303Z,91.30
2023-04-16T06:04:40.085Z,92.53
2023-04-16T06:05:40.132Z,92.63
2023-04-16T06:06:40.157Z,92.94
2023-04-16T06:07:40.203Z,92.94
2023-04-16T06:08:40.251Z,93.96
2023-04-16T06:09:40.161Z,94.48
2023-04-16T06:10:40.174Z,95.15
2023-04-16T06:11:40.046Z,95.76
2023-04-16T06:12:39.990Z,95.46
2023-04-16T06:13:39.974Z,96.07
2023-04-16T06:14:39.967Z,95.15
2023-04-16T06:15:39.989Z,95.76
2023-04-16T06:16:39.948Z,95.66
2023-04-16T06:17:40.131Z,98.02
2023-04-16T06:18:39.922Z,97.40
2023-04-16T06:19:39.945Z,97.40
2023-04-16T06:20:39.925Z,96.99
2023-04-16T06:21:39.893Z,98.63
2023-04-16T06:22:39.880Z,98.53
2023-04-16T06:23:39.863Z,98.94
2023-04-16T06:24:39.853Z,98.43
2023-04-16T06:25:39.842Z,99.04
2023-04-16T06:26:39.839Z,99.20
2023-04-16T06:27:39.817Z,99.30
2023-04-16T06:28:39.807Z,98.90
2023-04-16T06:29:41.576Z,99.20
2023-04-16T06:30:39.789Z,96.84
2023-04-16T06:31:39.801Z,98.38
2023-04-16T06:32:39.897Z,98.49
2023-04-16T06:33:39.756Z,99.99
2023-04-16T06:34:39.752Z,99.99
2023-04-16T06:35:39.755Z,99.99
2023-04-16T06:36:39.725Z,99.99
2023-04-16T06:37:39.706Z,99.99
2023-04-16T06:38:39.691Z,99.99
2023-04-16T06:39:39.689Z,99.99
2023-04-16T06:40:39.682Z,99.99
2023-04-16T06:41:39.676Z,99.99
2023-04-16T06:42:39.666Z,99.99
2023-04-16T06:43:39.634Z,99.99
2023-04-16T06:44:39.662Z,99.99
2023-04-16T06:45:39.617Z,99.99
2023-04-16T06:46:39.638Z,99.99
2023-04-16T06:47:39.630Z,99.99
2023-04-16T06:48:39.579Z,99.99
2023-04-16T06:49:39.570Z,99.99
2023-04-16T06:50:39.557Z,99.99
2023-04-16T06:51:39.568Z,99.99
2023-04-16T06:52:39.543Z,99.99
2023-04-16T06:53:39.522Z,99.99
2023-04-16T06:54:39.512Z,99.99
2023-04-16T06:55:39.500Z,99.99
2023-04-16T06:56:39.502Z,99.99
2023-04-16T06:57:39.491Z,99.99
2023-04-16T06:58:39.478Z,99.99
2023-04-16T06:59:39.454Z,99.99
2023-04-16T07:00:39.514Z,99.99
2023-04-16T07:01:39.435Z,99.99
2023-04-16T07:02:39.639Z,99.99
2023-04-16T07:03:39.579Z,99.99
2023-04-16T07:04:39.403Z,99.99
2023-04-16T07:05:39.392Z,99.99
2023-04-16T07:06:39.390Z,99.99
2023-04-16T07:07:39.390Z,99.99
2023-04-16T07:08:39.366Z,99.99
2023-04-16T07:09:39.350Z,99.99
2023-04-16T07:10:39.346Z,99.99
2023-04-16T07:11:39.321Z,99.99
2023-04-16T07:12:39.316Z,99.99
2023-04-16T07:13:39.300Z,99.99
2023-04-16T07:14:39.294Z,99.99
2023-04-16T07:15:39.278Z,99.99
2023-04-16T07:16:39.305Z,99.99
2023-04-16T07:17:39.290Z,99.99
2023-04-16T07:18:39.248Z,99.99
2023-04-16T07:19:39.241Z,99.99
2023-04-16T07:20:39.220Z,99.99
2023-04-16T07:21:39.211Z,99.99
2023-04-16T07:22:39.211Z,99.99
2023-04-16T07:23:39.238Z,99.99
2023-04-16T07:24:39.191Z,99.99
2023-04-16T07:25:39.377Z,99.99
2023-04-16T07:26:39.160Z,99.99
2023-04-16T07:27:39.239Z,99.99
2023-04-16T07:28:39.164Z,99.99
2023-04-16T07:29:39.140Z,99.99
2023-04-16T07:30:39.114Z,99.99
2023-04-16T07:31:39.178Z,99.99
2023-04-16T07:32:39.120Z,99.99
2023-04-16T07:33:39.074Z,99.99
2023-04-16T07:34:39.069Z,99.99
2023-04-16T07:35:39.064Z,99.99
2023-04-16T07:36:39.064Z,99.99
2023-04-16T07:37:39.035Z,99.99
2023-04-16T07:38:39.023Z,99.99
2023-04-16T07:39:39.029Z,99.99
2023-04-16T07:40:38.996Z,99.99
2023-04-16T07:41:38.989Z,99.99
2023-04-16T07:42:38.976Z,99.99
2023-04-16T07:43:38.962Z,99.99
2023-04-16T07:44:38.958Z,99.99
2023-04-16T07:45:39.626Z,99.99
2023-04-16T07:46:47.050Z,99.99
2023-04-16T07:47:39.983Z,99.99
2023-04-16T07:48:38.920Z,99.99
2023-04-16T07:49:38.921Z,99.99
2023-04-16T07:50:38.899Z,99.99
2023-04-16T07:51:38.898Z,99.99
2023-04-16T07:52:38.868Z,99.99
2023-04-16T07:53:39.155Z,99.99
2023-04-16T07:54:38.839Z,99.99
2023-04-16T07:55:38.877Z,99.99
2023-04-16T07:56:38.821Z,99.99
2023-04-16T07:57:38.813Z,99.99
2023-04-16T07:58:38.796Z,99.99
2023-04-16T07:59:38.782Z,99.99
2023-04-16T08:00:38.795Z,99.99
2023-04-16T08:01:38.760Z,99.99
2023-04-16T08:02:38.849Z,99.99
2023-04-16T08:03:38.875Z,99.99
2023-04-16T08:04:38.884Z,99.99
2023-04-16T08:05:38.732Z,99.99
2023-04-16T08:06:38.708Z,99.99
2023-04-16T08:07:38.700Z,99.99
2023-04-16T08:08:38.685Z,99.99
2023-04-16T08:09:38.688Z,99.99
2023-04-16T08:10:38.659Z,99.99
2023-04-16T08:11:38.675Z,99.99
2023-04-16T08:12:38.647Z,99.99
2023-04-16T08:13:38.634Z,99.99
2023-04-16T08:14:38.641Z,99.99
2023-04-16T08:15:38.678Z,99.99
2023-04-16T08:16:38.600Z,99.99
2023-04-16T08:17:38.635Z,99.99
2023-04-16T08:18:38.572Z,99.99
2023-04-16T08:19:38.570Z,99.99
2023-04-16T08:20:38.573Z,99.99
2023-04-16T08:21:38.557Z,99.99
2023-04-16T08:22:38.528Z,99.99
2023-04-16T08:23:38.518Z,99.99
2023-04-16T08:24:38.509Z,99.99
2023-04-16T08:25:38.559Z,99.99
2023-04-16T08:26:38.506Z,99.99
2023-04-16T08:27:38.505Z,99.99
2023-04-16T08:28:38.476Z,99.99
2023-04-16T08:29:38.457Z,99.99
2023-04-16T08:30:38.437Z,99.99
2023-04-16T08:31:38.457Z,99.99
2023-04-16T08:32:38.519Z,99.99
2023-04-16T08:33:38.413Z,99.99
2023-04-16T08:34:38.425Z,99.99
2023-04-16T08:35:38.386Z,99.99
2023-04-16T08:36:38.370Z,99.99
2023-04-16T08:37:38.358Z,99.99
2023-04-16T08:38:38.367Z,99.99
2023-04-16T08:39:38.421Z,99.99
2023-04-16T08:40:38.329Z,99.99
2023-04-16T08:41:38.325Z,99.99
2023-04-16T08:42:38.310Z,99.99
2023-04-16T08:43:38.330Z,99.99
2023-04-16T08:44:38.309Z,99.99
2023-04-16T08:45:38.278Z,99.99
2023-04-16T08:46:38.354Z,99.99
2023-04-16T08:47:38.300Z,99.99
2023-04-16T08:48:38.240Z,99.99
2023-04-16T08:49:38.224Z,99.99
2023-04-16T08:50:38.220Z,99.99
2023-04-16T08:51:38.238Z,99.99
2023-04-16T08:52:38.217Z,99.99
2023-04-16T08:53:38.335Z,99.99
2023-04-16T08:54:38.176Z,99.99
2023-04-16T08:55:38.160Z,99.99
2023-04-16T08:56:38.147Z,99.99
2023-04-16T08:57:38.148Z,99.99
2023-04-16T08:58:38.130Z,99.99
2023-04-16T08:59:38.163Z,99.99
2023-04-16T09:00:38.104Z,99.99
2023-04-16T09:01:38.103Z,99.99
2023-04-16T09:02:38.413Z,99.99
2023-04-16T09:03:38.304Z,99.99
2023-04-16T09:04:38.150Z,99.99
2023-04-16T09:05:38.048Z,99.99
2023-04-16T09:06:38.032Z,99.99
2023-04-16T09:07:38.296Z,99.99
2023-04-16T09:08:38.009Z,99.99
2023-04-16T09:09:38.009Z,99.99
2023-04-16T09:10:37.993Z,99.99
2023-04-16T09:11:37.979Z,99.99
2023-04-16T09:12:37.970Z,99.99
2023-04-16T09:13:37.952Z,99.99
2023-04-16T09:14:37.945Z,99.99
2023-04-16T09:15:37.953Z,99.99
2023-04-16T09:16:37.981Z,99.99
2023-04-16T09:17:37.961Z,99.99
2023-04-16T09:18:37.906Z,99.99
2023-04-16T09:19:37.894Z,99.99
2023-04-16T09:20:37.878Z,99.99
2023-04-16T09:21:37.868Z,99.99
2023-04-16T09:22:37.856Z,99.99
2023-04-16T09:23:37.843Z,99.99
2023-04-16T09:24:37.952Z,99.99
2023-04-16T09:25:37.975Z,99.99
2023-04-16T09:26:37.966Z,99.99
2023-04-16T09:27:37.974Z,99.99
2023-04-16T09:28:37.792Z,99.99
2023-04-16T09:29:37.800Z,99.99
2023-04-16T09:30:37.979Z,99.99
2023-04-16T09:31:37.958Z,99.99
2023-04-16T09:32:37.789Z,99.99
2023-04-16T09:33:37.734Z,99.99
2023-04-16T09:34:37.733Z,99.99
2023-04-16T09:35:37.710Z,99.99
2023-04-16T09:36:37.702Z,99.99
2023-04-16T09:37:37.701Z,99.99
2023-04-16T09:38:37.685Z,99.99
2023-04-16T09:39:37.665Z,99.99
2023-04-16T09:40:37.676Z,99.99
2023-04-16T09:41:37.657Z,99.99
2023-04-16T09:42:37.657Z,99.99
2023-04-16T09:43:37.718Z,99.99
2023-04-16T09:44:37.630Z,99.99
2023-04-16T09:45:37.622Z,99.99
2023-04-16T09:46:37.589Z,99.99
2023-04-16T09:47:37.686Z,99.99
2023-04-16T09:48:37.570Z,99.99
2023-04-16T09:49:37.560Z,99.99
2023-04-16T09:50:37.553Z,99.99
2023-04-16T09:51:37.537Z,99.99
2023-04-16T09:52:37.551Z,99.99
2023-04-16T09:53:37.537Z,99.99
2023-04-16T09:54:37.501Z,99.99
2023-04-16T09:55:37.490Z,99.99
2023-04-16T09:56:37.481Z,99.99
2023-04-16T09:57:37.473Z,99.99
2023-04-16T09:58:37.467Z,99.99
2023-04-16T09:59:37.456Z,99.99
2023-04-16T10:00:42.342Z,99.99
2023-04-16T10:01:37.471Z,99.99
2023-04-16T10:02:37.443Z,99.99
2023-04-16T10:03:37.601Z,99.99
2023-04-16T10:04:37.430Z,99.99
2023-04-16T10:05:37.382Z,99.99
2023-04-16T10:06:37.388Z,99.99
2023-04-16T10:07:37.379Z,99.99
2023-04-16T10:08:37.375Z,99.99
2023-04-16T10:09:37.342Z,99.99
2023-04-16T10:10:37.332Z,99.99
2023-04-16T10:11:37.325Z,99.99
2023-04-16T10:12:37.306Z,99.99
2023-04-16T10:13:37.296Z,99.99
2023-04-16T10:14:37.319Z,99.99
2023-04-16T10:15:37.279Z,99.99
2023-04-16T10:16:37.299Z,99.99
2023-04-16T10:17:37.290Z,99.99
2023-04-16T10:18:37.307Z,99.99
2023-04-16T10:19:37.298Z,99.99
2023-04-16T10:20:37.212Z,99.99
2023-04-16T10:21:37.202Z,99.99
2023-04-16T10:22:37.191Z,99.99
2023-04-16T10:23:37.210Z,99.99
2023-04-16T10:24:37.175Z,99.99
2023-04-16T10:25:37.159Z,99.99
2023-04-16T10:26:37.153Z,99.99
2023-04-16T10:27:37.140Z,99.99
2023-04-16T10:28:37.130Z,99.99
2023-04-16T10:29:37.118Z,99.99
2023-04-16T10:30:37.119Z,99.99
2023-04-16T10:31:37.104Z,99.99
2023-04-16T10:32:37.112Z,99.99
2023-04-16T10:33:37.114Z,99.99
2023-04-16T10:34:37.080Z,99.99
2023-04-16T10:35:37.074Z,99.99
2023-04-16T10:36:37.036Z,99.99
2023-04-16T10:37:37.034Z,99.99
2023-04-16T10:38:37.050Z,99.99
2023-04-16T10:39:37.033Z,99.99
2023-04-16T10:40:36.993Z,99.99
2023-04-16T10:41:37.004Z,99.99
2023-04-16T10:42:37.058Z,99.99
2023-04-16T10:43:36.961Z,99.99
2023-04-16T10:44:36.957Z,99.99
2023-04-16T10:45:36.970Z,99.99
2023-04-16T10:46:36.977Z,99.99
2023-04-16T10:47:36.943Z,99.99
2023-04-16T10:48:46.775Z,99.99
2023-04-16T10:49:36.890Z,99.99
2023-04-16T10:50:36.995Z,99.99
2023-04-16T10:51:36.888Z,99.99
2023-04-16T10:52:36.850Z,99.99
2023-04-16T10:53:36.842Z,99.99
2023-04-16T10:54:36.831Z,99.99
2023-04-16T10:55:36.818Z,99.99
2023-04-16T10:56:36.833Z,99.99
2023-04-16T10:57:36.807Z,99.99
2023-04-16T10:58:36.790Z,99.99
2023-04-16T10:59:36.775Z,99.99
2023-04-16T11:00:36.768Z,99.99
2023-04-16T11:01:36.771Z,99.99
2023-04-16T11:02:36.868Z,99.99
2023-04-16T11:03:36.866Z,99.99
2023-04-16T11:04:36.907Z,99.99
2023-04-16T11:05:36.709Z,99.99
2023-04-16T11:06:36.698Z,99.99
2023-04-16T11:07:36.775Z,99.99
2023-04-16T11:08:47.552Z,99.99
2023-04-16T11:09:36.661Z,99.99
2023-04-16T11:10:36.648Z,99.99
2023-04-16T11:11:36.640Z,99.99
2023-04-16T11:12:36.634Z,99.99
2023-04-16T11:13:36.619Z,99.99
2023-04-16T11:14:36.604Z,99.99
2023-04-16T11:15:36.701Z,99.99
2023-04-16T11:16:36.601Z,99.99
2023-04-16T11:17:36.587Z,99.99
2023-04-16T11:18:36.618Z,99.99
2023-04-16T11:19:36.555Z,99.99
2023-04-16T11:20:36.542Z,99.99
2023-04-16T11:21:36.530Z,99.99
2023-04-16T11:22:36.543Z,99.99
2023-04-16T11:23:36.529Z,99.99
2023-04-16T11:24:36.497Z,99.99
2023-04-16T11:25:36.482Z,99.99
2023-04-16T11:26:36.470Z,99.99
2023-04-16T11:27:36.465Z,99.99
2023-04-16T11:28:36.455Z,99.99
2023-04-16T11:29:36.474Z,99.99
2023-04-16T11:30:36.553Z,99.99
2023-04-16T11:31:36.514Z,99.99
2023-04-16T11:32:36.435Z,99.99
2023-04-16T11:33:36.394Z,99.99
2023-04-16T11:34:36.395Z,99.99
2023-04-16T11:35:36.389Z,99.99
2023-04-16T11:36:36.364Z,99.99
2023-04-16T11:37:36.363Z,99.99
2023-04-16T11:38:36.357Z,99.99
2023-04-16T11:39:36.354Z,99.99
2023-04-16T11:40:36.404Z,99.99
2023-04-16T11:41:36.331Z,99.99
2023-04-16T11:42:36.402Z,99.99
2023-04-16T11:43:36.285Z,99.99
2023-04-16T11:44:36.272Z,99.99
2023-04-16T11:45:36.260Z,99.99
2023-04-16T11:46:36.294Z,99.99
2023-04-16T11:47:36.307Z,99.99
2023-04-16T11:48:36.255Z,99.99
2023-04-16T11:49:36.223Z,99.99
2023-04-16T11:50:36.209Z,99.99
2023-04-16T11:51:36.348Z,99.99
2023-04-16T11:52:36.210Z,99.99
2023-04-16T11:53:36.179Z,99.99
2023-04-16T11:54:36.170Z,99.99
2023-04-16T11:55:36.180Z,99.99
2023-04-16T11:56:36.145Z,99.99
2023-04-16T11:57:36.133Z,99.99
2023-04-16T11:58:36.118Z,99.99
2023-04-16T11:59:36.120Z,99.99
2023-04-16T12:00:36.107Z,99.99
2023-04-16T12:01:36.121Z,99.99
2023-04-16T12:02:36.184Z,99.99
2023-04-16T12:03:36.399Z,99.99
2023-04-16T12:04:36.169Z,99.99
2023-04-16T12:05:36.043Z,99.99
2023-04-16T12:06:36.052Z,99.99
2023-04-16T12:07:36.020Z,99.99
2023-04-16T12:08:36.016Z,99.99
2023-04-16T12:09:37.931Z,99.99
2023-04-16T12:10:36.003Z,99.99
2023-04-16T12:11:36.006Z,99.99
2023-04-16T12:12:35.968Z,99.99
2023-04-16T12:13:35.955Z,99.99
2023-04-16T12:14:35.960Z,99.99
2023-04-16T12:15:35.943Z,99.99
2023-04-16T12:16:36.046Z,99.99
2023-04-16T12:17:35.955Z,99.99
2023-04-16T12:18:35.957Z,99.99
2023-04-16T12:19:35.893Z,99.99
2023-04-16T12:20:35.876Z,99.99
2023-04-16T12:21:35.883Z,99.99
2023-04-16T12:22:37.083Z,99.99
2023-04-16T12:23:35.856Z,99.99
2023-04-16T12:24:35.831Z,99.99
2023-04-16T12:25:35.835Z,99.99
2023-04-16T12:26:35.809Z,99.99
2023-04-16T12:27:35.826Z,99.99
2023-04-16T12:28:35.789Z,99.99
2023-04-16T12:29:35.780Z,99.99
2023-04-16T12:30:35.785Z,99.99
2023-04-16T12:31:35.752Z,99.99
2023-04-16T12:32:35.821Z,99.99
2023-04-16T12:33:35.736Z,99.99
2023-04-16T12:34:48.014Z,99.99
2023-04-16T12:35:36.734Z,99.99
2023-04-16T12:36:35.701Z,99.99
2023-04-16T12:37:35.704Z,99.99
2023-04-16T12:38:35.683Z,99.99
2023-04-16T12:39:35.698Z,99.99
2023-04-16T12:40:38.286Z,99.99
2023-04-16T12:41:35.640Z,99.99
2023-04-16T12:42:35.667Z,99.99
2023-04-16T12:43:35.650Z,99.99
2023-04-16T12:44:35.606Z,99.99
2023-04-16T12:45:35.598Z,99.99
2023-04-16T12:46:35.749Z,99.99
2023-04-16T12:47:35.647Z,99.99
2023-04-16T12:48:35.586Z,99.99
2023-04-16T12:49:35.838Z,99.99
2023-04-16T12:50:35.543Z,99.99
2023-04-16T12:51:35.547Z,99.99
2023-04-16T12:52:35.528Z,99.99